Quantcast

_Zenith_'s R^3 replays

1 - 50 | 51 - 100 | 101 - 150 | 151 - 196
Song Results (Perf-Good-Avg-Miss-Boo) Max Combo Score Date
Hesperides 3,057 - 0 - 0 - 2 - 0 1,643 3,323,730 11/7/19
Alien Lair 2,210 - 0 - 0 - 0 - 0 2,210 3,425,500 10/21/19
Cest What 1,550 - 4 - 0 - 2 - 0 673 1,525,980 10/8/19
Weapon 3,204 - 0 - 0 - 0 - 0 3,204 4,966,200 9/12/19
Eclipse (Solar) 138 - 0 - 0 - 0 - 0 138 213,900 9/11/19
Music -corrupted mix- 1,695 - 3 - 0 - 1 - 1 1,375 2,307,745 8/29/19
LOSHAXI 1,336 - 1 - 0 - 0 - 1 1,337 2,072,055 8/29/19
Red Wings Over Baron 4,312 - 0 - 0 - 0 - 0 4,312 6,683,600 8/22/19
J'ai Envie de Plaisir X2 1,652 - 0 - 0 - 0 - 0 1,652 2,560,600 8/19/19
October (Dark Autumn Remix) 2,372 - 0 - 0 - 0 - 0 2,372 3,676,600 8/19/19
Starbound 9,416 - 2 - 0 - 1 - 1 5,498 10,677,020 8/13/19
White Walls, Part 2 3,784 - 0 - 0 - 2 - 0 2,311 4,391,580 8/7/19
Herbie Goes Ballistic 4,030 - 2 - 0 - 0 - 0 4,032 6,249,050 8/6/19
Rengoku-Purgatorium- 1,785 - 0 - 0 - 0 - 0 1,785 2,766,750 8/2/19
OWA Raged In Vegas (Fuck Bees) 720 - 1 - 0 - 1 - 0 680 1,075,965 3/27/19
OWA Raged at Kurorak for Making OWA Raged at Skeletor 651 - 0 - 0 - 1 - 0 512 869,740 3/27/19
Skeletor 169 - 0 - 0 - 0 - 0 169 261,950 7/24/18
Skeletor 169 - 0 - 0 - 0 - 0 169 261,950 7/24/18
The Disappearance of Hatsune Miku -Theatrical Version- 260 - 0 - 0 - 0 - 0 260 403,000 7/7/18
A Dichroic Glass Snafu 1,729 - 2 - 0 - 0 - 2 1,731 2,682,460 7/6/18
Final Fantasy Last Battle Festival 3,633 - 12 - 0 - 3 - 1 1,787 3,787,500 6/28/18
cold (Kurorak's Bootleg) 1,736 - 11 - 0 - 4 - 1 646 1,602,565 12/30/16
A Dichroic Glass Snafu 1,727 - 2 - 0 - 2 - 1 1,122 2,071,760 12/30/16
_.Pulse 2,270 - 1 - 0 - 1 - 0 1,823 3,071,465 12/30/16
_.Pulse 2,261 - 6 - 0 - 5 - 1 1,148 2,391,630 12/19/16
Major League Can Can 706 - 0 - 2 - 0 - 3 708 1,096,350 12/16/16
Death Piano 450 - 1 - 0 - 0 - 0 451 698,775 11/23/16
The Disappearance of Hatsune Miku -Theatrical Version- 1,947 - 8 - 1 - 4 - 1 1,872 2,943,845 10/9/16
thinking of you 2,706 - 0 - 0 - 0 - 0 2,706 4,194,300 10/9/16
Stinger 2,026 - 0 - 0 - 0 - 1 2,026 3,140,280 10/9/16
Epileptic Crisis 1,713 - 0 - 0 - 1 - 1 1,154 2,095,820 10/9/16
Reluctantly Accepting Temporary Overexhaustion 1,515 - 61 - 1 - 23 - 3 396 1,238,890 10/9/16
Slashmaid 1,949 - 0 - 0 - 0 - 0 1,949 3,020,950 10/7/16
Death Moon 1,823 - 0 - 0 - 0 - 0 1,823 2,825,650 10/7/16
The Bridgeport Run 2,683 - 8 - 0 - 2 - 0 1,714 3,191,230 10/5/16
thinking of you 2,703 - 2 - 0 - 1 - 0 2,253 3,739,890 9/28/16
Twirling Star 3,230 - 0 - 0 - 0 - 0 3,230 5,006,500 9/21/16
Winter Wind Etude 2,401 - 5 - 0 - 1 - 0 1,242 2,563,615 8/24/16
Undici 3,156 - 128 - 1 - 54 - 9 417 2,171,135 8/24/16
OWA Raged at Kurorak for Making OWA Raged at Skeletor 2,124 - 5 - 1 - 1 - 0 1,740 2,909,320 8/24/16
OWA Raged at Home Run Derby 3,034 - 23 - 1 - 11 - 8 845 2,516,510 8/22/16
OWA Raged In Vegas (Fuck Bees) 3,015 - 6 - 0 - 0 - 0 3,021 4,680,900 8/22/16
Odd-22 2,216 - 36 - 0 - 5 - 1 759 1,986,130 8/22/16
Metro 2,466 - 6 - 0 - 0 - 1 2,472 3,829,930 7/31/16
Powerflux 4,005 - 54 - 1 - 22 - 3 1,333 3,543,775 7/31/16
Unconnected. 1,419 - 4 - 0 - 0 - 1 1,423 2,204,530 7/30/16
miko 1,410 - 5 - 0 - 5 - 2 1,205 1,980,285 7/26/16
MANIERA 1,774 - 0 - 0 - 0 - 0 1,774 2,749,700 7/26/16
OWA Raged at Kurorak for Making OWA Raged at Skeletor 2,123 - 6 - 1 - 1 - 3 1,166 2,334,985 7/26/16
Cloud Nine 888 - 2 - 0 - 2 - 0 630 1,118,330 7/24/16